KLND

Details ICAO KLND
Name HUNT FLD
Region United States
Timezone America/Denver (UTC-7.0)
Plans Departing 5
Arriving 3
Stats Elevation 5,586 ft / 1,703 m (AMSL)
Location 42.815569° -108.728265°
Runways 1
Magnetic Variation 10.393° E
Sunrise 2017-12-13 14:38:48 UTC / 2017-12-13 07:38:48 Local
Sunset 2017-12-13 23:42:33 UTC / 2017-12-13 16:42:33 Local
Advertisement - Login to hide

Runways

ID Width Length Bearing (true) Bearing (mag) Surface Threshold Offset Overrun Length
03 98 ft / 30 m 5,004 ft / 1,525 m 50.30° 39.91° Asphalt 0 ft / 0 m 98 ft / 30 m
21 98 ft / 30 m 5,004 ft / 1,525 m 230.30° 219.91° Asphalt 0 ft / 0 m 0 ft / 0 m

Map

Weather


0- 5 10 15 20 25 30 35+ Temperature / ° C

Clouds and Precipitation
Forecast for 2017-12-13 12:00 UTC. Updated 5 minutes ago

Ground ~20,000 ft ~40,000 ft Winds

METAR

KLND 131053Z AUTO 24008KT 10SM CLR 01/M11 A3020 RMK AO2 SLP234 T00061106

TAF

KLND 130533Z 1306/1406 VRB05KT P6SM SCT110 BKN250 FM132200 33006KT P6SM VCSH SCT025 OVC040 FM140000 33006KT 3SM -SN OVC016

Frequencies

Recorded 118.15 MHz ASOS
Unicom 122.80 MHz CTAF/UNICOM
Warning: Do not use this data for real-world aviation or navigation. No guarantee of current accuracy is given.